Archival Weather

Abadan

Abadan, Iran (OIAA)

Report from: Wednesday, December 6, 2023 1:00 PM UTC
Current time: Sunday, February 25, 2024 10:49 PM UTC

Current weather – Weather history – Daily summaries
Weather forecast

Temperature24.0°C (75.2°F)
Dew point5.0°C (41.0°F)
Winds 8 kts (4.1 m/s, 9.2 mph) North-Northeast (20°)
Visibility5 mi. (8 km)
Clouds Few clouds 4,000 ft. (1,219 m)
Ceiling: Broken clouds 10,000 ft. (3,048 m)
Broken clouds 20,000 ft. (6,096 m)
Altimeter30.00 in.Hg (1016 mB)
Relative humidity29 %
Density altitude1,082 ft. (330 m)
Flight conditions Marginal Visual Meteorological Conditions
Raw dataOIAA 061300Z 02008KT 8000 FEW040 BKN100 BKN200 24/05 Q1016
An error has occurred. This application may no longer respond until reloaded. Reload 🗙